Time;durP1;ratioP1;P1;durP2;ratioP2;P2;SDS_P1;SDS_P2;PMS_P1;PMS_P2;Temp;Humidity;BMP_temperature;BMP_pressure;BME280_temperature;BME280_humidity;BME280_pressure;Samples;Min_cycle;Max_cycle;Signal;HPM_P1;HPM_P2
2021/12/19 00:01:54;;;;;;;8.80;3.78;;;;;;;7.01;100.00;103734.50;5045230;28;20045;-78
2021/12/19 00:09:28;;;;;;;6.65;3.50;;;;;;;7.23;100.00;103717.19;5062921;28;20046;-79
2021/12/19 00:11:54;;;;;;;12.10;3.88;;;;;;;7.15;100.00;103718.13;5056183;28;20143;-78
2021/12/19 00:14:22;;;;;;;16.17;5.15;;;;;;;6.68;100.00;103715.75;5045242;28;20124;-78
2021/12/19 00:16:47;;;;;;;13.45;4.30;;;;;;;6.88;100.00;103708.72;5041233;28;20049;-77
2021/12/19 00:19:13;;;;;;;9.27;3.63;;;;;;;6.98;100.00;103709.31;5028769;28;20033;-78
2021/12/19 00:21:40;;;;;;;10.48;3.65;;;;;;;7.06;100.00;103705.63;5040996;28;20071;-79
2021/12/19 00:24:06;;;;;;;7.47;2.80;;;;;;;6.86;100.00;103699.03;5047263;28;20037;-79
2021/12/19 00:26:33;;;;;;;9.63;3.03;;;;;;;7.02;100.00;103703.44;5053030;28;20395;-78
2021/12/19 00:29:03;;;;;;;8.93;3.08;;;;;;;6.98;100.00;103700.25;5064085;28;20489;-78
2021/12/19 00:31:29;;;;;;;10.40;4.10;;;;;;;7.02;100.00;103703.44;5016757;28;20037;-78
2021/12/19 00:33:54;;;;;;;9.65;2.90;;;;;;;6.94;100.00;103704.41;5042459;28;20033;-78
2021/12/19 00:36:21;;;;;;;6.82;2.80;;;;;;;6.95;100.00;103701.50;5055960;28;20352;-78
2021/12/19 00:38:46;;;;;;;6.57;2.92;;;;;;;7.14;100.00;103702.78;5045600;28;20041;-79
2021/12/19 00:41:12;;;;;;;4.10;2.05;;;;;;;7.21;100.00;103700.16;5030290;28;20043;-78
2021/12/19 00:46:11;;;;;;;3.60;2.30;;;;;;;7.09;100.00;103691.59;5063069;28;20028;-78
2021/12/19 00:48:45;;;;;;;5.00;2.60;;;;;;;7.44;100.00;103694.56;5063581;28;20047;-78
2021/12/19 00:51:14;;;;;;;6.97;2.60;;;;;;;7.20;100.00;103682.09;5037723;28;20499;-78
2021/12/19 00:53:40;;;;;;;5.35;2.78;;;;;;;7.41;100.00;103680.44;5060406;28;20027;-78
2021/12/19 00:56:06;;;;;;;7.68;2.95;;;;;;;7.26;100.00;103675.03;5044278;28;20431;-77
2021/12/19 00:58:31;;;;;;;10.02;3.15;;;;;;;7.30;100.00;103666.28;5061676;28;20033;-77
2021/12/19 01:00:57;;;;;;;7.13;2.67;;;;;;;7.25;100.00;103671.47;5061670;28;20032;-78
2021/12/19 01:03:23;;;;;;;10.93;3.40;;;;;;;7.08;100.00;103672.69;5051104;28;20037;-78
2021/12/19 01:05:49;;;;;;;8.05;3.28;;;;;;;6.80;100.00;103681.53;5035356;28;20045;-78
2021/12/19 01:08:15;;;;;;;4.60;2.17;;;;;;;6.77;100.00;103676.44;5026284;28;20021;-78
2021/12/19 01:10:45;;;;;;;9.80;2.80;;;;;;;6.77;100.00;103671.84;5062744;28;20062;-78
2021/12/19 01:13:11;;;;;;;8.57;3.00;;;;;;;6.76;100.00;103675.59;5048495;28;20368;-80
2021/12/19 01:15:37;;;;;;;6.15;2.90;;;;;;;6.98;100.00;103673.84;5055311;28;20456;-78
2021/12/19 01:18:04;;;;;;;9.48;3.00;;;;;;;6.89;100.00;103676.84;5061582;28;20436;-77
2021/12/19 01:20:30;;;;;;;7.43;2.90;;;;;;;6.92;100.00;103668.25;5059702;28;20033;-77
2021/12/19 01:22:57;;;;;;;6.30;2.70;;;;;;;7.01;100.00;103671.75;5030779;28;20033;-77
2021/12/19 01:25:22;;;;;;;10.23;3.10;;;;;;;6.77;100.00;103676.44;5050900;28;20372;-77
2021/12/19 01:27:49;;;;;;;7.00;2.70;;;;;;;6.80;100.00;103676.06;5046834;28;20475;-78
2021/12/19 01:30:15;;;;;;;3.45;1.83;;;;;;;6.78;100.00;103661.78;5061263;28;20021;-77
2021/12/19 01:32:42;;;;;;;2.08;1.10;;;;;;;6.74;100.00;103665.91;5042847;28;20025;-80
2021/12/19 01:35:11;;;;;;;2.55;1.30;;;;;;;6.81;100.00;103667.72;5041771;28;20439;-79
2021/12/19 01:37:38;;;;;;;3.00;1.48;;;;;;;6.83;100.00;103662.06;5043125;28;20025;-78
2021/12/19 01:40:05;;;;;;;1.40;1.00;;;;;;;6.71;100.00;103660.84;5049379;28;20108;-76
2021/12/19 01:42:33;;;;;;;1.80;0.85;;;;;;;6.80;100.00;103654.25;5061947;28;20070;-77
2021/12/19 01:44:59;;;;;;;1.00;0.75;;;;;;;7.00;100.00;103659.97;5062672;28;20036;-78
2021/12/19 01:47:25;;;;;;;1.83;1.00;;;;;;;6.80;100.00;103646.94;5044653;28;20032;-78
2021/12/19 01:49:52;;;;;;;1.50;1.10;;;;;;;6.96;100.00;103656.78;5048503;28;20438;-78
2021/12/19 01:52:18;;;;;;;4.40;1.42;;;;;;;6.78;100.00;103650.88;5057789;28;20446;-77
2021/12/19 01:54:50;;;;;;;3.47;1.30;;;;;;;6.77;100.00;103644.59;5025819;28;20033;-77
2021/12/19 01:57:18;;;;;;;3.10;1.30;;;;;;;6.72;100.00;103640.72;5055746;28;20021;-79
2021/12/19 01:59:43;;;;;;;3.03;1.23;;;;;;;6.70;100.00;103643.63;5047193;28;20035;-79
2021/12/19 02:02:08;;;;;;;1.77;0.90;;;;;;;6.80;100.00;103637.91;5047735;28;20132;-78
2021/12/19 02:04:34;;;;;;;1.80;0.93;;;;;;;6.84;100.00;103641.09;5061639;28;20319;-77
2021/12/19 02:07:01;;;;;;;1.55;1.10;;;;;;;6.70;100.00;103635.44;5056368;28;20024;-78
2021/12/19 02:09:26;;;;;;;1.35;1.15;;;;;;;6.84;100.00;103639.22;5046265;28;20028;-78
2021/12/19 02:11:53;;;;;;;2.38;1.60;;;;;;;6.88;100.00;103632.34;5055277;28;20340;-78
2021/12/19 02:14:20;;;;;;;2.80;1.60;;;;;;;6.73;100.00;103631.50;5045448;28;20033;-78
2021/12/19 02:16:47;;;;;;;11.75;2.85;;;;;;;6.83;100.00;103625.78;5062416;28;20048;-79
2021/12/19 02:19:12;;;;;;;10.30;3.13;;;;;;;7.12;100.00;103620.28;5045876;28;20025;-77
2021/12/19 02:21:39;;;;;;;14.30;4.57;;;;;;;7.02;100.00;103617.03;5025341;28;20541;-78
2021/12/19 02:24:08;;;;;;;16.55;5.28;;;;;;;7.17;100.00;103623.28;5063007;28;20025;-78
2021/12/19 02:26:36;;;;;;;7.05;4.00;;;;;;;7.03;100.00;103617.84;5061215;28;20095;-78
2021/12/19 02:29:02;;;;;;;6.70;3.75;;;;;;;6.79;100.00;103612.53;5056758;28;20043;-78
2021/12/19 02:31:30;;;;;;;4.18;2.40;;;;;;;6.69;100.00;103614.69;5062801;28;20033;-78
2021/12/19 02:34:08;;;;;;;5.03;2.00;;;;;;;6.65;100.00;103618.81;5041433;28;20035;-78
2021/12/19 02:37:19;;;;;;;4.40;1.75;;;;;;;6.79;100.00;103611.69;5056371;28;20432;-78
2021/12/19 02:40:07;;;;;;;3.15;2.05;;;;;;;6.76;100.00;103614.78;5040957;28;20118;-79
2021/12/19 02:48:12;;;;;;;5.28;2.25;;;;;;;7.26;100.00;103615.81;5043156;28;20055;-79
2021/12/19 02:50:57;;;;;;;5.18;1.90;;;;;;;7.03;100.00;103609.66;5038980;28;20345;-79
2021/12/19 02:53:37;;;;;;;5.68;2.22;;;;;;;7.02;100.00;103607.97;5065295;28;20107;-78
2021/12/19 02:56:05;;;;;;;8.25;2.90;;;;;;;7.05;100.00;103593.94;5062169;28;20097;-80
2021/12/19 02:58:32;;;;;;;8.50;2.50;;;;;;;7.05;100.00;103596.69;5066341;28;20148;-79
2021/12/19 03:01:00;;;;;;;4.82;2.30;;;;;;;7.10;100.00;103595.09;5064379;28;20435;-78
2021/12/19 03:03:26;;;;;;;7.25;2.65;;;;;;;7.17;100.00;103585.09;5063115;28;20048;-79
2021/12/19 03:05:51;;;;;;;6.38;2.58;;;;;;;7.26;100.00;103580.34;5058377;28;20056;-79
2021/12/19 03:08:17;;;;;;;7.38;2.40;;;;;;;7.20;100.00;103580.28;5049974;28;20498;-79
2021/12/19 03:11:25;;;;;;;9.77;2.13;;;;;;;7.04;100.00;103575.91;5060186;28;20028;-79
2021/12/19 03:19:09;;;;;;;4.53;2.17;;;;;;;7.19;100.00;103554.88;5050753;28;20189;-79
2021/12/19 03:21:34;;;;;;;4.22;2.10;;;;;;;7.22;100.00;103554.50;5049278;28;20111;-78
2021/12/19 03:24:00;;;;;;;3.58;2.00;;;;;;;7.25;100.00;103548.66;5028714;28;20028;-78
2021/12/19 03:26:27;;;;;;;7.88;2.28;;;;;;;7.41;100.00;103535.78;5048497;28;20117;-78
2021/12/19 03:28:53;;;;;;;3.35;2.00;;;;;;;7.17;100.00;103541.44;5041995;28;20025;-78
2021/12/19 03:31:18;;;;;;;2.20;1.60;;;;;;;7.08;100.00;103541.75;5044181;28;20119;-79
2021/12/19 03:33:43;;;;;;;1.63;1.08;;;;;;;6.93;100.00;103534.44;5046918;28;20123;-78
2021/12/19 03:36:09;;;;;;;1.38;1.15;;;;;;;7.00;100.00;103523.59;5012890;28;20029;-80
2021/12/19 03:38:39;;;;;;;1.10;1.00;;;;;;;7.08;100.00;103528.09;5060862;28;20480;-78
2021/12/19 03:41:33;;;;;;;1.55;1.00;;;;;;;7.09;100.00;103522.44;5064827;28;20173;-78
2021/12/19 03:43:51;;;;;;;4.90;1.10;;;;;;;6.99;100.00;103532.84;5066387;28;20044;-78
2021/12/19 03:46:18;;;;;;;2.65;1.30;;;;;;;7.11;100.00;103523.09;5054789;28;20037;-79
2021/12/19 03:48:43;;;;;;;2.88;1.30;;;;;;;7.14;100.00;103516.41;5050495;28;20273;-79
2021/12/19 03:51:09;;;;;;;2.67;1.60;;;;;;;7.30;100.00;103520.78;5043328;28;20557;-79
2021/12/19 03:53:35;;;;;;;5.28;1.95;;;;;;;7.39;100.00;103516.88;5068589;28;20032;-78
2021/12/19 03:56:01;;;;;;;7.50;2.60;;;;;;;7.53;100.00;103526.88;5067308;28;20036;-78
2021/12/19 03:58:26;;;;;;;6.93;2.20;;;;;;;7.28;100.00;103514.66;5063989;28;20067;-79
2021/12/19 04:00:58;;;;;;;8.88;2.55;;;;;;;7.27;100.00;103511.09;5047440;28;20158;-77
2021/12/19 04:03:24;;;;;;;4.40;1.80;;;;;;;7.38;100.00;103509.75;5058881;28;20036;-78
2021/12/19 04:05:52;;;;;;;5.97;2.20;;;;;;;7.44;100.00;103497.19;5063513;28;20763;-78
2021/12/19 04:08:19;;;;;;;3.67;1.70;;;;;;;7.32;100.00;103505.06;5058114;28;20386;-78
2021/12/19 04:10:47;;;;;;;3.05;1.60;;;;;;;7.36;100.00;103498.16;5049698;28;20111;-77
2021/12/19 04:13:13;;;;;;;2.47;1.30;;;;;;;7.33;100.00;103491.22;5060778;28;20031;-79
2021/12/19 04:15:39;;;;;;;2.83;1.67;;;;;;;7.21;100.00;103489.19;5068255;28;20047;-77
2021/12/19 04:18:04;;;;;;;4.72;2.17;;;;;;;7.35;100.00;103474.66;5067026;28;20491;-77
2021/12/19 04:20:30;;;;;;;3.55;2.20;;;;;;;7.28;100.00;103485.50;5028511;28;20033;-79
2021/12/19 04:22:55;;;;;;;2.95;1.52;;;;;;;7.10;100.00;103485.09;5064283;28;20119;-77
2021/12/19 04:25:22;;;;;;;3.75;1.88;;;;;;;6.94;100.00;103483.47;5067934;28;20040;-77
2021/12/19 04:27:48;;;;;;;3.05;2.50;;;;;;;7.08;100.00;103485.28;5066917;28;20031;-79
2021/12/19 04:30:18;;;;;;;5.80;3.45;;;;;;;7.04;100.00;103484.00;5067360;28;20036;-77
2021/12/19 04:32:47;;;;;;;9.18;3.47;;;;;;;6.99;100.00;103481.00;5067254;28;20113;-78
2021/12/19 04:35:16;;;;;;;5.93;3.13;;;;;;;6.93;100.00;103488.06;5040429;28;20032;-78
2021/12/19 04:38:49;;;;;;;6.05;2.05;;;;;;;7.11;100.00;103484.06;5047332;28;20117;-77
2021/12/19 04:40:44;;;;;;;1.63;1.20;;;;;;;6.88;100.00;103474.16;5046651;28;20469;-80
2021/12/19 04:56:37;;;;;;;2.33;1.27;;;;;;;6.74;100.00;103469.59;5065693;28;20036;-77
2021/12/19 04:59:14;;;;;;;1.63;0.88;;;;;;;7.09;100.00;103459.72;5054405;28;20423;-78
2021/12/19 05:15:24;;;;;;;4.38;0.98;;;;;;;6.84;100.00;103481.06;5046112;28;20055;-77
2021/12/19 05:17:52;;;;;;;2.55;1.02;;;;;;;7.05;100.00;103479.38;5036118;28;20048;-78
2021/12/19 05:20:22;;;;;;;3.70;0.90;;;;;;;6.87;100.00;103480.69;5065329;28;20085;-77
2021/12/19 05:22:49;;;;;;;1.92;0.80;;;;;;;6.81;100.00;103481.44;5060360;28;20028;-77
2021/12/19 05:25:17;;;;;;;1.73;0.82;;;;;;;7.04;100.00;103492.19;5047349;28;20192;-76
2021/12/19 05:27:48;;;;;;;2.03;0.80;;;;;;;7.31;100.00;103487.00;5057829;28;20406;-78
2021/12/19 05:30:14;;;;;;;2.38;0.80;;;;;;;6.93;100.00;103487.22;5063572;28;20023;-76
2021/12/19 05:32:42;;;;;;;1.40;0.63;;;;;;;7.11;100.00;103486.78;5041125;28;20036;-76
2021/12/19 05:35:10;;;;;;;1.98;0.80;;;;;;;7.02;100.00;103487.94;5066589;28;20055;-77
2021/12/19 05:45:53;;;;;;;1.15;0.73;;;;;;;7.11;100.00;103473.16;5063923;28;20490;-78
2021/12/19 05:48:18;;;;;;;2.45;0.90;;;;;;;7.09;100.00;103472.50;5053765;28;20033;-77
2021/12/19 05:50:44;;;;;;;4.03;1.45;;;;;;;7.20;100.00;103476.59;5046203;28;20428;-76
2021/12/19 05:53:11;;;;;;;4.68;1.42;;;;;;;7.24;100.00;103473.28;5054768;28;20552;-76
2021/12/19 05:55:36;;;;;;;3.50;1.33;;;;;;;7.30;100.00;103461.59;5027758;28;20047;-76
2021/12/19 05:58:02;;;;;;;2.85;1.20;;;;;;;7.45;100.00;103456.06;5043640;28;20033;-77
2021/12/19 06:00:28;;;;;;;2.63;1.30;;;;;;;7.31;100.00;103443.31;5043558;28;20052;-76
2021/12/19 06:02:53;;;;;;;3.30;1.80;;;;;;;7.03;100.00;103446.84;5027686;28;20029;-76
2021/12/19 06:05:18;;;;;;;4.55;1.30;;;;;;;7.19;100.00;103456.66;5044005;28;20032;-77
2021/12/19 06:07:44;;;;;;;2.53;1.10;;;;;;;6.87;100.00;103464.31;5042921;28;20029;-78
2021/12/19 06:10:13;;;;;;;2.90;0.90;;;;;;;6.91;100.00;103459.31;5029499;28;20021;-77
2021/12/19 06:12:39;;;;;;;3.13;0.95;;;;;;;6.92;100.00;103470.03;5062503;28;20040;-77
2021/12/19 06:15:08;;;;;;;0.60;0.60;;;;;;;6.79;100.00;103450.81;5055004;28;20083;-77
2021/12/19 06:17:35;;;;;;;1.05;0.90;;;;;;;6.89;100.00;103456.78;5034448;28;20132;-77
2021/12/19 06:20:00;;;;;;;2.95;1.20;;;;;;;7.07;100.00;103455.50;5052961;28;20077;-77
2021/12/19 06:22:25;;;;;;;4.00;1.50;;;;;;;6.97;100.00;103447.63;5024327;28;20453;-77
2021/12/19 06:24:51;;;;;;;2.35;1.40;;;;;;;7.10;100.00;103457.81;5024617;28;20120;-78
2021/12/19 06:27:16;;;;;;;1.67;1.10;;;;;;;6.74;100.00;103456.81;5040716;28;20181;-79
2021/12/19 06:29:42;;;;;;;1.58;0.98;;;;;;;7.17;100.00;103461.47;5026270;28;20040;-78
2021/12/19 06:32:07;;;;;;;2.03;1.02;;;;;;;7.02;100.00;103457.94;5026196;28;20474;-76
2021/12/19 06:34:32;;;;;;;2.97;1.05;;;;;;;6.86;100.00;103450.88;5054265;28;20301;-79
2021/12/19 06:36:58;;;;;;;3.10;0.93;;;;;;;7.02;100.00;103456.06;5020367;28;20036;-76
2021/12/19 06:39:24;;;;;;;3.63;0.90;;;;;;;6.95;100.00;103455.16;5039787;28;20029;-77
2021/12/19 06:41:51;;;;;;;5.53;0.70;;;;;;;6.73;100.00;103452.41;5044424;28;20025;-79
2021/12/19 06:44:16;;;;;;;1.90;0.68;;;;;;;6.78;100.00;103455.38;5025174;28;20025;-77
2021/12/19 06:46:43;;;;;;;1.73;0.40;;;;;;;6.97;100.00;103462.09;5052522;28;20029;-77
2021/12/19 06:49:08;;;;;;;1.13;0.40;;;;;;;7.04;100.00;103454.00;5042916;28;20098;-77
2021/12/19 06:51:34;;;;;;;1.15;0.50;;;;;;;6.71;100.00;103453.66;5027775;28;20036;-77
2021/12/19 06:54:00;;;;;;;0.98;0.60;;;;;;;6.84;100.00;103444.75;5039153;28;20031;-77
2021/12/19 06:56:27;;;;;;;1.27;0.55;;;;;;;6.88;100.00;103443.34;5061829;28;20537;-76
2021/12/19 06:58:53;;;;;;;0.70;0.50;;;;;;;6.86;100.00;103442.69;5060728;28;20016;-77
2021/12/19 07:01:19;;;;;;;1.95;0.70;;;;;;;6.75;100.00;103439.41;5026479;28;20375;-77
2021/12/19 07:03:44;;;;;;;1.75;0.40;;;;;;;6.76;100.00;103434.81;5058510;28;20033;-77
2021/12/19 07:06:32;;;;;;;4.63;0.60;;;;;;;6.81;100.00;103437.81;5039789;28;20260;-77
2021/12/19 07:08:57;;;;;;;1.73;0.60;;;;;;;6.73;100.00;103437.94;5048946;28;20044;-76
2021/12/19 07:11:23;;;;;;;2.05;0.52;;;;;;;6.71;100.00;103429.09;5047854;28;20050;-78
2021/12/19 07:13:48;;;;;;;3.50;1.20;;;;;;;6.82;100.00;103436.75;5047546;28;20402;-78
2021/12/19 07:16:15;;;;;;;2.83;1.05;;;;;;;7.05;100.00;103427.56;5053308;28;20552;-76
2021/12/19 07:18:42;;;;;;;3.10;1.48;;;;;;;7.02;100.00;103430.66;5064540;28;20052;-77
2021/12/19 07:21:10;;;;;;;3.63;1.40;;;;;;;6.93;100.00;103430.78;5032346;28;20386;-76
2021/12/19 07:23:36;;;;;;;4.15;1.60;;;;;;;6.72;100.00;103428.06;5061852;28;20395;-79
2021/12/19 07:26:02;;;;;;;3.15;1.20;;;;;;;6.84;100.00;103431.97;5049455;28;20035;-78
2021/12/19 07:28:28;;;;;;;2.00;0.77;;;;;;;6.88;100.00;103425.06;5047860;28;20032;-79
2021/12/19 07:30:53;;;;;;;2.30;0.90;;;;;;;6.85;100.00;103428.19;5045283;28;21102;-78
2021/12/19 07:33:19;;;;;;;3.03;1.10;;;;;;;6.83;100.00;103422.09;5032242;28;20039;-77
2021/12/19 07:35:47;;;;;;;4.15;1.90;;;;;;;6.77;100.00;103425.59;5029470;28;20029;-78
2021/12/19 07:38:25;;;;;;;6.72;2.10;;;;;;;6.93;100.00;103425.34;5023235;28;20025;-78
2021/12/19 07:40:53;;;;;;;4.13;2.15;;;;;;;6.92;100.00;103423.66;5059178;28;20066;-78
2021/12/19 07:43:19;;;;;;;5.68;1.75;;;;;;;7.08;100.00;103421.72;5054931;28;20028;-79
2021/12/19 07:45:44;;;;;;;2.90;1.27;;;;;;;6.93;100.00;103428.06;5047639;28;20040;-80
2021/12/19 07:48:11;;;;;;;3.70;0.85;;;;;;;6.87;100.00;103420.69;5047598;28;20543;-81
2021/12/19 07:50:36;;;;;;;2.92;0.55;;;;;;;6.81;100.00;103427.75;5037014;28;20307;-77
2021/12/19 07:53:03;;;;;;;2.75;0.70;;;;;;;6.81;100.00;103421.44;5040880;28;20032;-77
2021/12/19 07:55:29;;;;;;;2.83;0.80;;;;;;;6.66;100.00;103421.50;5045457;28;20052;-77
2021/12/19 07:57:55;;;;;;;4.47;1.02;;;;;;;6.86;100.00;103420.88;5063178;28;20366;-77
2021/12/19 08:00:22;;;;;;;2.55;1.08;;;;;;;6.90;100.00;103424.88;5064330;28;20032;-76
2021/12/19 08:02:48;;;;;;;7.20;1.05;;;;;;;7.00;100.00;103419.94;5064796;28;20035;-79
2021/12/19 08:05:15;;;;;;;1.38;0.50;;;;;;;6.87;100.00;103415.22;5064105;28;20033;-76
2021/12/19 08:07:48;;;;;;;2.47;0.80;;;;;;;6.92;100.00;103423.66;5044363;28;20435;-78
2021/12/19 08:11:39;;;;;;;;;;;;;;;7.01;100.00;103412.63;5066950;28;20034;-76
2021/12/19 08:13:09;;;;;;;2.33;1.10;;;;;;;6.91;100.00;103419.25;5050036;28;19921;-77
2021/12/19 08:15:37;;;;;;;2.08;0.93;;;;;;;6.98;100.00;103413.84;5042306;28;20108;-79
2021/12/19 08:18:03;;;;;;;3.40;1.05;;;;;;;6.91;100.00;103419.25;5043788;28;20125;-79
2021/12/19 08:20:29;;;;;;;3.22;0.90;;;;;;;6.93;100.00;103406.25;5043837;28;20075;-77
2021/12/19 08:22:55;;;;;;;2.03;0.93;;;;;;;7.04;100.00;103401.34;5012536;28;20127;-79
2021/12/19 08:25:23;;;;;;;1.73;0.90;;;;;;;6.86;100.00;103396.34;5056198;28;20106;-76
2021/12/19 08:27:48;;;;;;;2.35;0.82;;;;;;;7.07;100.00;103403.66;5052958;28;20028;-76
2021/12/19 08:30:16;;;;;;;2.40;0.82;;;;;;;6.92;100.00;103396.41;5055381;28;20028;-77
2021/12/19 08:32:42;;;;;;;1.88;0.73;;;;;;;6.92;100.00;103396.41;5057306;28;20118;-78
2021/12/19 08:35:09;;;;;;;3.95;0.70;;;;;;;7.10;100.00;103397.78;5048446;28;20025;-77
2021/12/19 08:37:35;;;;;;;3.88;0.82;;;;;;;7.11;100.00;103400.34;5046515;28;20054;-77
2021/12/19 08:40:01;;;;;;;2.08;0.70;;;;;;;7.22;100.00;103388.06;5063041;28;20056;-78
2021/12/19 08:42:28;;;;;;;2.20;0.73;;;;;;;6.99;100.00;103400.00;5060242;28;20169;-77
2021/12/19 08:44:53;;;;;;;2.63;1.08;;;;;;;7.12;100.00;103395.75;5048046;28;20048;-78
2021/12/19 08:47:19;;;;;;;7.53;1.88;;;;;;;7.02;100.00;103397.94;5057987;28;20382;-77
2021/12/19 08:49:44;;;;;;;4.07;1.70;;;;;;;7.11;100.00;103399.50;5059143;28;20113;-76
2021/12/19 08:52:17;;;;;;;5.60;1.48;;;;;;;7.21;100.00;103405.44;5062330;28;20301;-74
2021/12/19 08:54:42;;;;;;;4.78;1.75;;;;;;;7.07;100.00;103395.50;5049892;28;20032;-78
2021/12/19 08:57:11;;;;;;;1.60;0.82;;;;;;;7.20;100.00;103400.19;5051216;28;20439;-77
2021/12/19 08:59:36;;;;;;;0.70;0.60;;;;;;;7.19;100.00;103391.16;5062411;28;20040;-77
2021/12/19 09:02:02;;;;;;;0.80;0.60;;;;;;;7.01;100.00;103386.19;5047742;28;20032;-79
2021/12/19 09:04:29;;;;;;;3.70;0.80;;;;;;;7.11;100.00;103385.84;5061714;28;20040;-76
2021/12/19 09:06:59;;;;;;;1.95;0.75;;;;;;;6.96;100.00;103378.59;5046615;28;20025;-76
2021/12/19 09:09:25;;;;;;;3.20;0.52;;;;;;;7.13;100.00;103384.63;5060065;28;20033;-75
2021/12/19 09:11:52;;;;;;;1.25;0.63;;;;;;;7.10;100.00;103386.88;5044906;28;20345;-77
2021/12/19 09:14:17;;;;;;;1.10;0.80;;;;;;;7.12;100.00;103379.38;5029223;28;20115;-77
2021/12/19 09:16:43;;;;;;;4.20;1.30;;;;;;;7.19;100.00;103388.44;5044886;28;20547;-76
2021/12/19 09:19:08;;;;;;;5.05;1.92;;;;;;;7.15;100.00;103385.28;5062765;28;20052;-78
2021/12/19 09:21:34;;;;;;;5.80;2.17;;;;;;;7.27;100.00;103384.75;5061253;28;20024;-79
2021/12/19 09:23:59;;;;;;;7.93;3.60;;;;;;;7.52;100.00;103377.78;5061725;28;20047;-76
2021/12/19 09:26:31;;;;;;;5.95;3.20;;;;;;;7.46;100.00;103378.59;5026916;28;20040;-78
2021/12/19 09:28:56;;;;;;;8.57;6.30;;;;;;;7.64;100.00;103378.09;5061263;28;20028;-78
2021/12/19 09:31:22;;;;;;;6.15;4.40;;;;;;;7.53;100.00;103375.91;5009533;28;20288;-78
2021/12/19 09:33:48;;;;;;;2.00;1.08;;;;;;;7.08;100.00;103378.91;5057433;28;20032;-76
2021/12/19 09:36:13;;;;;;;2.85;1.20;;;;;;;7.42;100.00;103373.72;5044513;28;20116;-77
2021/12/19 09:38:41;;;;;;;3.17;1.00;;;;;;;7.91;100.00;103375.50;5045619;28;20176;-77
2021/12/19 09:41:15;;;;;;;1.55;0.80;;;;;;;7.81;100.00;103367.66;5064231;28;20097;-76
2021/12/19 09:43:41;;;;;;;2.63;0.98;;;;;;;7.50;100.00;103362.66;5043863;28;20142;-76
2021/12/19 09:46:10;;;;;;;6.00;0.80;;;;;;;7.83;100.00;103371.03;5044974;28;20024;-78
2021/12/19 09:48:38;;;;;;;4.60;0.98;;;;;;;7.68;100.00;103362.97;5042621;28;20021;-76
2021/12/19 09:51:03;;;;;;;4.13;1.05;;;;;;;7.64;100.00;103358.97;5060292;28;20119;-77
2021/12/19 09:53:48;;;;;;;1.58;0.82;;;;;;;7.47;100.00;103361.16;5041477;28;20131;-78
2021/12/19 09:56:13;;;;;;;1.25;0.70;;;;;;;7.28;100.00;103362.72;5026534;28;20021;-77
2021/12/19 09:58:40;;;;;;;5.60;0.98;;;;;;;7.47;100.00;103360.31;5024036;28;20025;-77
2021/12/19 10:01:08;;;;;;;4.20;1.00;;;;;;;7.58;100.00;103358.94;5055298;28;20056;-77
2021/12/19 10:03:35;;;;;;;6.10;1.10;;;;;;;7.41;100.00;103367.44;5050951;28;20075;-78
2021/12/19 10:06:21;;;;;;;1.25;0.80;;;;;;;7.87;100.00;103364.13;5040995;28;20052;-78
2021/12/19 10:09:18;;;;;;;2.35;0.70;;;;;;;7.61;100.00;103355.78;5037812;28;20033;-77
2021/12/19 10:14:34;;;;;;;3.22;0.77;;;;;;;7.46;100.00;103358.63;5043629;28;20062;-77
2021/12/19 10:17:15;;;;;;;2.33;0.90;;;;;;;7.70;100.00;103352.69;5051807;28;20097;-79
2021/12/19 10:19:44;;;;;;;3.25;1.33;;;;;;;7.77;100.00;103343.69;5057658;28;20098;-77
2021/12/19 10:22:34;;;;;;;3.95;1.27;;;;;;;7.59;100.00;103350.53;5059246;28;20399;-77
2021/12/19 10:25:20;;;;;;;5.20;1.23;;;;;;;7.97;100.00;103343.78;5061571;28;20404;-78
2021/12/19 10:27:56;;;;;;;5.85;1.48;;;;;;;7.63;100.00;103340.88;5044524;28;20033;-75
2021/12/19 10:30:32;;;;;;;8.73;2.20;;;;;;;8.06;100.00;103337.94;5049204;28;20040;-78
2021/12/19 10:33:16;;;;;;;6.68;2.28;;;;;;;7.84;100.00;103345.41;5038545;28;20493;-79
2021/12/19 10:35:50;;;;;;;10.48;2.65;;;;;;;7.86;100.00;103339.75;5040554;28;20025;-79
2021/12/19 10:38:20;;;;;;;8.85;3.40;;;;;;;7.86;100.00;103337.84;5039241;28;20029;-78
2021/12/19 10:40:53;;;;;;;11.98;3.22;;;;;;;7.85;100.00;103329.88;5038976;28;20411;-77
2021/12/19 10:43:20;;;;;;;10.10;3.88;;;;;;;7.89;100.00;103325.69;5041639;28;20032;-78
2021/12/19 10:45:52;;;;;;;11.50;4.15;;;;;;;7.96;100.00;103326.56;5022536;28;20033;-78
2021/12/19 10:48:39;;;;;;;13.02;5.50;;;;;;;7.91;100.00;103312.66;5042909;28;20412;-79
2021/12/19 10:51:15;;;;;;;12.10;5.22;;;;;;;8.00;100.00;103305.13;5042122;28;20378;-78
2021/12/19 10:54:00;;;;;;;11.32;4.28;;;;;;;8.24;100.00;103301.00;5049540;28;20024;-79
2021/12/19 10:56:34;;;;;;;10.95;5.05;;;;;;;8.01;100.00;103295.91;5043091;28;20063;-78
2021/12/19 10:59:06;;;;;;;10.07;4.70;;;;;;;7.92;100.00;103295.25;5049024;28;20117;-80
2021/12/19 11:01:34;;;;;;;13.25;5.90;;;;;;;7.84;100.00;103284.50;5055967;28;20031;-79
2021/12/19 11:04:11;;;;;;;10.50;4.20;;;;;;;7.66;100.00;103293.25;5043451;28;20414;-78
2021/12/19 11:06:48;;;;;;;9.27;4.03;;;;;;;7.86;100.00;103285.97;5050712;28;20386;-78
2021/12/19 11:09:27;;;;;;;11.00;3.70;;;;;;;7.82;100.00;103292.03;5058991;28;20044;-80
2021/12/19 11:11:54;;;;;;;11.95;4.22;;;;;;;8.05;100.00;103286.22;5058442;28;20325;-79
2021/12/19 11:14:25;;;;;;;12.85;3.45;;;;;;;7.76;100.00;103268.28;5061890;28;20036;-77
2021/12/19 11:16:57;;;;;;;20.63;10.75;;;;;;;7.82;100.00;103264.72;5059061;28;20402;-79
2021/12/19 11:19:24;;;;;;;13.80;5.45;;;;;;;7.89;100.00;103265.59;5062918;28;20379;-78
2021/12/19 11:21:49;;;;;;;10.63;4.40;;;;;;;7.69;100.00;103257.31;5036874;28;20041;-79
2021/12/19 11:24:18;;;;;;;11.02;3.90;;;;;;;7.78;100.00;103253.38;5022400;28;20398;-80
2021/12/19 11:26:47;;;;;;;11.80;3.67;;;;;;;7.66;100.00;103255.00;5053107;28;20078;-80
2021/12/19 11:29:13;;;;;;;13.43;3.47;;;;;;;7.61;100.00;103247.44;5065502;28;20047;-80
2021/12/19 11:31:42;;;;;;;8.20;3.20;;;;;;;7.74;100.00;103243.91;5060854;28;20043;-78
2021/12/19 11:34:24;;;;;;;10.32;3.55;;;;;;;7.71;100.00;103239.69;5061605;28;20036;-79
2021/12/19 11:37:02;;;;;;;10.40;3.78;;;;;;;7.70;100.00;103238.00;5062035;28;20036;-78
2021/12/19 11:39:31;;;;;;;11.15;4.22;;;;;;;7.76;100.00;103236.34;5039062;28;20043;-79
2021/12/19 11:42:02;;;;;;;13.90;3.80;;;;;;;7.57;100.00;103243.41;5038359;28;20029;-78
2021/12/19 11:44:34;;;;;;;15.00;4.10;;;;;;;7.95;100.00;103239.34;5046123;28;20068;-79
2021/12/19 11:47:07;;;;;;;11.43;3.13;;;;;;;7.64;100.00;103233.38;5059809;28;20089;-79
2021/12/19 11:49:33;;;;;;;10.35;3.42;;;;;;;7.85;100.00;103221.44;5041761;28;20107;-75
2021/12/19 11:52:29;;;;;;;9.73;3.42;;;;;;;7.73;100.00;103223.94;5050593;28;20028;-71
2021/12/19 11:55:13;;;;;;;7.30;3.28;;;;;;;8.03;100.00;103223.59;5048538;28;20316;-75
2021/12/19 11:57:44;;;;;;;14.32;3.90;;;;;;;7.35;100.00;103215.38;5050352;28;20033;-78
2021/12/19 12:00:44;;;;;;;6.00;2.22;;;;;;;7.63;100.00;103214.47;5045142;28;20101;-77
2021/12/19 12:03:12;;;;;;;7.63;1.95;;;;;;;7.52;100.00;103224.06;5050895;28;20036;-75
2021/12/19 12:05:51;;;;;;;9.15;2.55;;;;;;;7.54;100.00;103221.97;5066220;28;20034;-77
2021/12/19 12:08:21;;;;;;;9.63;2.45;;;;;;;7.82;100.00;103218.28;5054075;28;20024;-74
2021/12/19 12:10:54;;;;;;;8.52;2.05;;;;;;;7.55;100.00;103210.00;5059788;28;20067;-75
2021/12/19 12:13:24;;;;;;;7.90;1.95;;;;;;;8.00;100.00;103217.72;5053134;28;20091;-75
2021/12/19 12:15:53;;;;;;;5.93;1.90;;;;;;;7.83;100.00;103214.53;5043092;28;20032;-75
2021/12/19 12:18:43;;;;;;;5.57;1.88;;;;;;;7.75;100.00;103214.72;5038147;28;20494;-75
2021/12/19 12:21:29;;;;;;;6.75;2.13;;;;;;;7.59;100.00;103216.75;5063918;28;20121;-75
2021/12/19 12:24:07;;;;;;;9.80;2.45;;;;;;;7.74;100.00;103208.41;5059978;28;21144;-74
2021/12/19 12:26:45;;;;;;;6.03;1.70;;;;;;;7.34;100.00;103206.34;5063347;28;20040;-76
2021/12/19 12:29:12;;;;;;;4.70;1.50;;;;;;;7.33;100.00;103196.50;5043138;28;20040;-76
2021/12/19 12:31:41;;;;;;;5.47;1.55;;;;;;;7.36;100.00;103206.13;5050402;28;20043;-74